Aviation Digital Data Service (ADDS)

Output produced by METARs form (0301 UTC 21 October 2017)
found at http://www.aviationweather.gov/adds/metars/
 
KHEZ 210256Z AUTO 11005KT 10SM CLR 22/19 A3007 RMK AO2 SLP185 T02170189 50005
KHEZ 210156Z AUTO 13003KT 10SM FEW047 22/19 A3007 RMK AO2 SLP186 T02170189
KHEZ 210056Z AUTO 10004KT 10SM CLR 22/19 A3007 RMK AO2 SLP186 T02220189
KHEZ 202356Z AUTO 09003KT 10SM BKN036 23/19 A3006 RMK AO2 SLP180 T02280194 10267 20222 56008
KHEZ 202256Z AUTO 08003KT 10SM CLR 23/20 A3006 RMK AO2 SLP182 T02330200
KHEZ 202156Z AUTO 08003KT 10SM CLR 25/19 A3007 RMK AO2 SLP183 T02500189
KHEZ 202056Z AUTO 15007KT 10SM CLR 26/18 A3008 RMK AO2 SLP188 T02560178 55016
KHEZ 201956Z AUTO 11008KT 10SM BKN039 26/18 A3008 RMK AO2 SLP188 T02610178
KHEZ 201856Z AUTO VRB03KT 10SM CLR 26/17 A3010 RMK AO2 SLP193 T02610172
KHEZ 201756Z AUTO 13008KT 10SM CLR 26/17 A3013 RMK AO2 SLP204 T02560167 10261 20161 58023
KHEZ 201656Z AUTO 15007KT 10SM CLR 25/16 A3017 RMK AO2 SLP218 T02500161
KHEZ 201556Z AUTO 14007KT 10SM CLR 23/16 A3018 RMK AO2 SLP223 T02280156
KHEZ 201456Z AUTO 00000KT 10SM CLR 21/16 A3020 RMK AO2 SLP228 T02110161 53008
KHEZ 201356Z AUTO 11006KT 10SM CLR 18/15 A3019 RMK AO2 SLP226 T01830150
KHEZ 201256Z AUTO 10006KT 10SM CLR 17/14 A3017 RMK AO2 SLP220 T01670139
KHEZ 201156Z AUTO 10004KT 10SM CLR 16/14 A3017 RMK AO2 SLP220 T01610144 10189 20150 53003
KHEZ 201056Z AUTO 12004KT 10SM CLR 17/15 A3017 RMK AO2 SLP219 T01670150
KHEZ 200956Z AUTO 13004KT 10SM CLR 17/15 A3016 RMK AO2 SLP216 T01720150
KHEZ 200856Z AUTO 09003KT 10SM CLR 16/14 A3016 RMK AO2 SLP216 T01560144 58006
KHEZ 200756Z AUTO 12004KT 10SM CLR 18/16 A3017 RMK AO2 SLP217 T01780156
KHEZ 200656Z AUTO 15004KT 10SM CLR 17/16 A3019 RMK AO2 SLP224 T01720156
KHEZ 200556Z AUTO 11005KT 10SM CLR 18/16 A3018 RMK AO2 SLP222 T01830156 10206 20161 402670106 50002
KHEZ 200456Z AUTO 12004KT 10SM FEW047 18/16 A3019 RMK AO2 SLP225 T01830156
KHEZ 200256Z AUTO 08003KT 10SM CLR 17/15 A3017 RMK AO2 SLP220 T01670150 53005
KHEZ 200156Z AUTO 00000KT 10SM CLR 17/16 A3017 RMK AO2 SLP218 T01720161
KHEZ 200056Z AUTO 00000KT 10SM CLR 18/17 A3017 RMK AO2 SLP218 T01830167
KHEZ 192356Z AUTO 00000KT 10SM CLR 21/17 A3016 RMK AO2 SLP216 T02110167 10267 20211 53002
KHEZ 192256Z AUTO 12004KT 10SM CLR 25/16 A3015 RMK AO2 SLP212 T02500156
KHEZ 192156Z AUTO 07004KT 10SM CLR 26/16 A3015 RMK AO2 SLP210 T02610156
KHEZ 192056Z AUTO 14007KT 10SM CLR 27/15 A3015 RMK AO2 SLP213 T02670150 56020
KHEZ 191956Z AUTO 10SM CLR 26/14 A3016 RMK AO2 SLP215 T02560144
KHEZ 191856Z AUTO VRB03KT 10SM CLR 25/13 A3018 RMK AO2 SLP222 T02500133
KHEZ 191756Z AUTO VRB04KT 10SM CLR 25/14 A3021 RMK AO2 SLP233 T02500144 10250 20106 58013
KHEZ 191656Z AUTO 00000KT 10SM CLR 23/14 A3024 RMK AO2 SLP242 T02280139
KHEZ 191556Z AUTO VRB03KT 10SM CLR 22/12 A3025 RMK AO2 SLP246 T02170122
KHEZ 191456Z AUTO VRB03KT 10SM CLR 20/13 A3025 RMK AO2 SLP245 T02000133 53015
KHEZ 191356Z AUTO 00000KT 10SM CLR 16/13 A3023 RMK AO2 SLP241 T01610133
KHEZ 191256Z AUTO 00000KT 10SM CLR 11/10 A3021 RMK AO2 SLP234 T01060100
KHEZ 191156Z AUTO 00000KT 10SM CLR 11/10 A3020 RMK AO2 SLP231 T01110100 10156 20106 51010
KHEZ 191056Z AUTO 00000KT 10SM CLR 11/10 A3020 RMK AO2 SLP230 T01060100
KHEZ 190956Z AUTO 00000KT 10SM CLR 12/11 A3018 RMK AO2 SLP223 T01170106
KHEZ 190856Z AUTO 00000KT 10SM CLR 13/11 A3017 RMK AO2 SLP219 T01330106 56006
KHEZ 190756Z AUTO 16004KT 10SM CLR 14/11 A3018 RMK AO2 SLP222 T01390106
KHEZ 190656Z AUTO 12003KT 10SM CLR 15/11 A3018 RMK AO2 SLP222 T01500111
KHEZ 190456Z AUTO 12006KT 10SM CLR 17/12 A3020 RMK AO2 SLP227 T01720117
KHEZ 190356Z AUTO 11007KT 10SM CLR 18/13 A3020 RMK AO2 SLP229 T01780133
KHEZ 190256Z AUTO 11003KT 10SM CLR 16/14 A3020 RMK AO2 SLP229 T01610139 51014
KHEZ 190156Z AUTO 00000KT 10SM CLR 16/15 A3019 RMK AO2 SLP225 T01610150
KHEZ 190056Z AUTO 00000KT 10SM CLR 17/15 A3018 RMK AO2 SLP223 T01670150
KHEZ 182356Z AUTO 00000KT 10SM CLR 19/15 A3016 RMK AO2 SLP215 T01940150 10267 20194 53003
KHEZ 182256Z AUTO 00000KT 10SM CLR 24/14 A3015 RMK AO2 SLP213 T02440144
KHEZ 182156Z AUTO 05003KT 10SM CLR 25/13 A3014 RMK AO2 SLP211 T02500128
KHEZ 182056Z AUTO 18004KT 10SM CLR 26/13 A3015 RMK AO2 SLP212 T02610133 56022
KHEZ 181956Z AUTO 34004KT 10SM CLR 26/14 A3016 RMK AO2 SLP215 T02560139
KHEZ 181856Z AUTO VRB03KT 10SM CLR 24/13 A3018 RMK AO2 SLP223 T02440133
KHEZ 181756Z AUTO VRB03KT 10SM CLR 23/13 A3021 RMK AO2 SLP234 T02330133 10239 20083 58009
KHEZ 181656Z AUTO 00000KT 10SM CLR 23/14 A3023 RMK AO2 SLP240 T02280139
KHEZ 181556Z AUTO 13004KT 10SM CLR 21/12 A3024 RMK AO2 SLP244 T02110122
KHEZ 181456Z AUTO 12004KT 10SM CLR 19/12 A3024 RMK AO2 SLP243 T01890117 53009
KHEZ 181356Z AUTO 11003KT 10SM CLR 16/11 A3023 RMK AO2 SLP238 T01560106
KHEZ 181256Z AUTO 00000KT 10SM CLR 09/09 A3021 RMK AO2 SLP235 T00940089
KHEZ 181156Z AUTO 00000KT 10SM CLR 08/08 A3021 RMK AO2 SLP233 T00830078 10128 20078 50001
KHEZ 181056Z AUTO 00000KT 10SM CLR 09/08 A3021 RMK AO2 SLP234 T00890083
KHEZ 180956Z AUTO 00000KT 10SM CLR 09/09 A3021 RMK AO2 SLP233 T00940089
KHEZ 180856Z AUTO 00000KT 10SM CLR 09/09 A3021 RMK AO2 SLP232 T00940089 53001
KHEZ 180756Z AUTO 00000KT 10SM CLR 10/09 A3021 RMK AO2 SLP232 T01000094
KHEZ 180656Z AUTO 00000KT 10SM CLR 11/10 A3020 RMK AO2 SLP229 T01060100
KHEZ 180556Z AUTO 00000KT 10SM CLR 12/12 A3020 RMK AO2 SLP230 T01220117 10183 20117 402390072 55001
KHEZ 180456Z AUTO 11003KT 10SM CLR 16/12 A3019 RMK AO2 SLP227 T01610117
KHEZ 180356Z AUTO 10003KT 10SM CLR 14/13 A3020 RMK AO2 SLP229 T01440128